Terminal Aerodrome Forecast
Issued by NWS

Home | Current Version | Previous Version | Text Only | Print | Product List | Glossary On
Versions: 1 2 3 4 5 6 7 8 9 10 11 12 13 14 15 16 17 18 19 20 21 22 23 24 25 26 27 28 29 30 31 32 33 34 35 36 37 38
000
FTUS43 KDLH 202000 AAC
TAFBRD
TAF AMD
KBRD 202017Z 2020/2118 VRB05KT P6SM SCT030 BKN045
     FM210500 11008KT P6SM VCSH SCT030 OVC050
     FM210800 12009KT 5SM BR VCSH SCT015 OVC035=

USA.gov is the U.S. government's official web portal to all federal, state and local government web resources and services.